createdAt,value
2023-04-25T00:00:14.509Z,4.68
2023-04-25T00:02:49.231Z,4.80
2023-04-25T00:05:25.917Z,3.80
2023-04-25T00:08:01.752Z,5.10
2023-04-25T00:10:37.105Z,3.67
2023-04-25T00:13:14.135Z,5.30
2023-04-25T00:15:48.928Z,3.60
2023-04-25T00:18:24.408Z,3.55
2023-04-25T00:20:59.174Z,3.75
2023-04-25T00:23:33.489Z,3.50
2023-04-25T00:26:08.972Z,4.22
2023-04-25T00:28:46.733Z,4.80
2023-04-25T00:31:21.955Z,5.20
2023-04-25T00:33:56.457Z,4.80
2023-04-25T00:36:31.145Z,4.25
2023-04-25T00:39:07.250Z,4.20
2023-04-25T00:41:43.155Z,3.80
2023-04-25T00:44:19.630Z,3.70
2023-04-25T00:46:54.301Z,3.72
2023-04-25T00:49:29.688Z,3.80
2023-04-25T00:52:04.163Z,3.65
2023-04-25T00:54:38.455Z,3.95
2023-04-25T00:57:14.104Z,4.82
2023-04-25T00:59:51.854Z,3.80
2023-04-25T01:02:26.730Z,3.40
2023-04-25T01:05:01.292Z,3.20
2023-04-25T01:07:36.405Z,3.78
2023-04-25T01:10:13.043Z,3.28
2023-04-25T01:12:48.277Z,3.03
2023-04-25T01:15:24.565Z,2.88
2023-04-25T01:18:00.698Z,3.28
2023-04-25T01:20:38.773Z,3.20
2023-04-25T01:23:15.731Z,3.25
2023-04-25T01:25:51.269Z,3.80
2023-04-25T01:28:26.483Z,3.70
2023-04-25T01:31:03.778Z,3.30
2023-04-25T01:33:38.474Z,2.95
2023-04-25T01:36:13.057Z,3.22
2023-04-25T01:38:50.658Z,3.53
2023-04-25T01:41:26.346Z,3.00
2023-04-25T01:44:01.764Z,2.78
2023-04-25T01:46:36.308Z,3.30
2023-04-25T01:49:12.315Z,2.90
2023-04-25T01:51:49.657Z,3.05
2023-04-25T01:54:26.646Z,2.78
2023-04-25T01:57:03.161Z,2.90
2023-04-25T01:59:41.136Z,3.08
2023-04-25T02:02:37.097Z,2.95
2023-04-25T02:05:14.122Z,3.00
2023-04-25T02:07:50.437Z,2.83
2023-04-25T02:10:27.023Z,2.97
2023-04-25T02:13:22.039Z,2.75
2023-04-25T02:16:10.596Z,2.53
2023-04-25T02:18:45.928Z,2.55
2023-04-25T02:21:20.417Z,2.70
2023-04-25T02:23:55.981Z,2.70
2023-04-25T02:26:34.487Z,2.22
2023-04-25T02:29:09.650Z,2.50
2023-04-25T02:31:44.229Z,2.70
2023-04-25T02:34:19.583Z,3.00
2023-04-25T02:36:54.752Z,2.40
2023-04-25T02:39:29.940Z,2.55
2023-04-25T02:42:06.940Z,2.53
2023-04-25T02:44:43.058Z,2.95
2023-04-25T02:47:17.573Z,2.60
2023-04-25T02:49:51.998Z,2.53
2023-04-25T02:52:26.552Z,2.58
2023-04-25T02:55:12.040Z,2.33
2023-04-25T02:57:48.630Z,2.53
2023-04-25T03:00:34.420Z,2.08
2023-04-25T03:03:09.552Z,2.30
2023-04-25T03:05:45.506Z,2.47
2023-04-25T03:08:20.491Z,2.10
2023-04-25T03:11:00.887Z,3.05
2023-04-25T03:13:40.982Z,2.30
2023-04-25T03:16:19.465Z,2.15
2023-04-25T03:18:54.446Z,2.33
2023-04-25T03:21:34.430Z,2.55
2023-04-25T03:24:13.674Z,2.60
2023-04-25T03:26:51.927Z,2.35
2023-04-25T03:29:32.169Z,1.90
2023-04-25T03:32:11.310Z,2.58
2023-04-25T03:34:46.079Z,2.45
2023-04-25T03:37:22.726Z,1.80
2023-04-25T03:39:58.709Z,2.33
2023-04-25T03:42:44.511Z,2.17
2023-04-25T03:45:22.608Z,2.10
2023-04-25T03:47:58.620Z,2.50
2023-04-25T03:50:35.825Z,2.50
2023-04-25T03:53:10.528Z,2.30
2023-04-25T03:56:17.075Z,2.72
2023-04-25T03:58:54.752Z,2.60
2023-04-25T04:01:34.246Z,2.42
2023-04-25T04:04:09.930Z,2.80
2023-04-25T04:06:44.971Z,2.70
2023-04-25T04:09:25.969Z,2.10
2023-04-25T04:12:02.393Z,2.53
2023-04-25T04:14:39.086Z,2.08
2023-04-25T04:17:16.441Z,2.10
2023-04-25T04:19:52.515Z,2.28
2023-04-25T04:22:28.445Z,2.20
2023-04-25T04:25:08.651Z,2.00
2023-04-25T04:28:04.350Z,2.20
2023-04-25T04:31:08.481Z,2.45
2023-04-25T04:33:44.851Z,2.40
2023-04-25T04:36:22.711Z,2.30
2023-04-25T04:38:59.270Z,1.80
2023-04-25T04:41:53.759Z,2.42
2023-04-25T04:44:43.045Z,2.05
2023-04-25T04:47:33.738Z,2.58
2023-04-25T04:50:24.507Z,2.55
2023-04-25T04:53:22.744Z,2.50
2023-04-25T04:56:03.220Z,2.25
2023-04-25T04:58:53.201Z,2.67
2023-04-25T05:01:37.904Z,2.63
2023-04-25T05:04:34.465Z,2.10
2023-04-25T05:07:34.546Z,2.67
2023-04-25T05:10:17.003Z,2.95
2023-04-25T05:13:09.400Z,2.55
2023-04-25T05:16:13.844Z,3.00
2023-04-25T05:19:01.353Z,2.65
2023-04-25T05:22:00.991Z,2.50
2023-04-25T05:24:47.486Z,2.95
2023-04-25T05:27:48.682Z,2.67
2023-04-25T05:30:35.978Z,2.97
2023-04-25T05:33:21.106Z,2.67
2023-04-25T05:35:56.057Z,2.90
2023-04-25T05:38:34.753Z,2.85
2023-04-25T05:41:40.711Z,2.63
2023-04-25T05:44:40.677Z,2.60
2023-04-25T05:47:29.490Z,2.85
2023-04-25T05:50:28.036Z,3.45
2023-04-25T05:53:08.528Z,2.50
2023-04-25T05:55:46.607Z,2.72
2023-04-25T05:58:30.812Z,3.00
2023-04-25T06:01:10.895Z,2.70
2023-04-25T06:03:48.050Z,2.60
2023-04-25T06:06:25.161Z,2.42
2023-04-25T06:09:10.002Z,2.45
2023-04-25T06:11:46.227Z,2.45
2023-04-25T06:14:23.721Z,2.30
2023-04-25T06:17:02.425Z,2.28
2023-04-25T06:19:37.606Z,2.72
2023-04-25T06:22:15.693Z,2.88
2023-04-25T06:24:50.696Z,2.53
2023-04-25T06:27:25.455Z,2.83
2023-04-25T06:30:05.559Z,2.38
2023-04-25T06:32:43.029Z,3.00
2023-04-25T06:35:17.794Z,2.63
2023-04-25T06:37:52.415Z,2.60
2023-04-25T06:40:30.591Z,2.85
2023-04-25T06:43:06.346Z,2.55
2023-04-25T06:45:58.429Z,2.50
2023-04-25T06:48:36.889Z,2.45
2023-04-25T06:51:12.215Z,2.72
2023-04-25T06:53:47.705Z,2.90
2023-04-25T06:56:32.332Z,2.85
2023-04-25T06:59:14.908Z,2.60
2023-04-25T07:01:53.967Z,2.60
2023-04-25T07:04:34.467Z,2.50
2023-04-25T07:07:10.554Z,2.78
2023-04-25T07:09:54.377Z,2.88
2023-04-25T07:12:29.259Z,3.13
2023-04-25T07:15:08.622Z,2.55
2023-04-25T07:17:45.432Z,2.65
2023-04-25T07:20:20.594Z,2.33
2023-04-25T07:22:55.715Z,2.38
2023-04-25T07:25:32.706Z,2.78
2023-04-25T07:28:08.366Z,2.60
2023-04-25T07:30:44.490Z,2.60
2023-04-25T07:33:23.022Z,2.70
2023-04-25T07:35:59.857Z,2.75
2023-04-25T07:38:35.736Z,2.67
2023-04-25T07:41:13.445Z,3.13
2023-04-25T07:43:48.494Z,2.40
2023-04-25T07:46:24.383Z,2.53
2023-04-25T07:49:02.755Z,2.70
2023-04-25T07:51:38.091Z,2.50
2023-04-25T07:54:18.661Z,2.50
2023-04-25T07:57:00.197Z,3.00
2023-04-25T07:59:38.715Z,2.70
2023-04-25T08:02:13.549Z,2.88
2023-04-25T08:04:52.447Z,3.67
2023-04-25T08:07:30.367Z,3.38
2023-04-25T08:10:10.519Z,2.55
2023-04-25T08:12:46.431Z,2.75
2023-04-25T08:15:26.161Z,2.97
2023-04-25T08:18:03.801Z,3.15
2023-04-25T08:20:44.536Z,2.55
2023-04-25T08:23:22.797Z,2.53
2023-04-25T08:26:00.635Z,2.88
2023-04-25T08:28:37.504Z,2.90
2023-04-25T08:31:13.587Z,2.67
2023-04-25T08:33:57.742Z,2.25
2023-04-25T08:36:44.222Z,3.00
2023-04-25T08:39:29.892Z,2.90
2023-04-25T08:42:22.839Z,2.75
2023-04-25T08:44:59.558Z,2.70
2023-04-25T08:47:39.608Z,2.83
2023-04-25T08:50:15.113Z,3.35
2023-04-25T08:52:55.145Z,2.53
2023-04-25T08:55:30.741Z,2.35
2023-04-25T08:58:07.013Z,2.70
2023-04-25T09:00:42.978Z,3.17
2023-04-25T09:03:18.451Z,2.33
2023-04-25T09:05:55.593Z,2.78
2023-04-25T09:08:32.740Z,2.95
2023-04-25T09:11:08.923Z,2.90
2023-04-25T09:13:44.121Z,2.80
2023-04-25T09:16:32.278Z,2.78
2023-04-25T09:19:39.553Z,2.70
2023-04-25T09:22:25.542Z,2.80
2023-04-25T09:25:02.390Z,2.85
2023-04-25T09:27:37.511Z,2.60
2023-04-25T09:30:24.137Z,2.55
2023-04-25T09:33:14.287Z,2.67
2023-04-25T09:35:57.921Z,2.65
2023-04-25T09:38:46.789Z,2.70
2023-04-25T09:41:31.433Z,2.80
2023-04-25T09:44:10.545Z,2.35
2023-04-25T09:46:45.742Z,2.78
2023-04-25T09:49:28.648Z,2.80
2023-04-25T09:52:19.655Z,2.67
2023-04-25T09:55:06.577Z,2.78
2023-04-25T09:57:44.357Z,2.70
2023-04-25T10:00:20.008Z,2.65
2023-04-25T10:02:54.932Z,2.40
2023-04-25T10:05:55.167Z,2.58
2023-04-25T10:08:31.849Z,2.95
2023-04-25T10:11:10.527Z,2.75
2023-04-25T10:13:48.011Z,2.70
2023-04-25T10:16:26.028Z,2.58
2023-04-25T10:19:02.446Z,2.97
2023-04-25T10:21:39.023Z,2.10
2023-04-25T10:24:17.465Z,2.80
2023-04-25T10:26:53.514Z,3.00
2023-04-25T10:29:33.416Z,2.75
2023-04-25T10:32:08.503Z,2.33
2023-04-25T10:34:49.528Z,2.17
2023-04-25T10:37:25.757Z,2.88
2023-04-25T10:40:00.858Z,2.88
2023-04-25T10:42:36.019Z,2.42
2023-04-25T10:45:13.588Z,2.58
2023-04-25T10:47:51.074Z,2.35
2023-04-25T10:50:25.582Z,2.22
2023-04-25T10:52:59.969Z,2.67
2023-04-25T10:55:55.523Z,2.78
2023-04-25T10:58:31.502Z,2.40
2023-04-25T11:01:08.128Z,2.47
2023-04-25T11:03:47.435Z,2.47
2023-04-25T11:06:28.600Z,2.15
2023-04-25T11:09:04.922Z,2.03
2023-04-25T11:11:42.511Z,2.15
2023-04-25T11:14:32.295Z,2.40
2023-04-25T11:17:10.229Z,2.88
2023-04-25T11:19:46.483Z,2.40
2023-04-25T11:22:22.034Z,2.38
2023-04-25T11:24:59.674Z,2.72
2023-04-25T11:27:35.318Z,2.50
2023-04-25T11:30:20.809Z,2.65
2023-04-25T11:32:57.703Z,2.78
2023-04-25T11:35:41.382Z,2.85
2023-04-25T11:38:17.126Z,2.85
2023-04-25T11:41:01.122Z,2.50
2023-04-25T11:43:37.412Z,3.17
2023-04-25T11:46:20.046Z,2.88
2023-04-25T11:49:06.747Z,2.85
2023-04-25T11:51:49.101Z,3.25
2023-04-25T11:54:24.200Z,2.95
2023-04-25T11:56:59.373Z,2.50
2023-04-25T11:59:37.760Z,3.05
2023-04-25T12:02:14.351Z,2.60
2023-04-25T12:04:53.687Z,2.92
2023-04-25T12:07:41.975Z,2.90
2023-04-25T12:10:21.896Z,2.78
2023-04-25T12:13:00.628Z,3.25
2023-04-25T12:15:40.319Z,2.78
2023-04-25T12:18:15.201Z,2.65
2023-04-25T12:20:52.390Z,2.97
2023-04-25T12:23:33.286Z,2.88
2023-04-25T12:26:08.214Z,2.75
2023-04-25T12:28:44.241Z,3.10
2023-04-25T12:31:20.265Z,2.83
2023-04-25T12:33:55.952Z,3.20
2023-04-25T12:36:36.763Z,3.10
2023-04-25T12:39:11.544Z,3.10
2023-04-25T12:41:47.172Z,2.63
2023-04-25T12:44:23.209Z,3.10
2023-04-25T12:46:59.525Z,2.67
2023-04-25T12:49:35.620Z,3.28
2023-04-25T12:52:11.860Z,2.92
2023-04-25T12:54:48.536Z,2.85
2023-04-25T12:57:23.040Z,2.85
2023-04-25T12:59:57.921Z,2.80
2023-04-25T13:02:36.652Z,3.08
2023-04-25T13:05:13.861Z,3.05
2023-04-25T13:07:50.582Z,2.53
2023-04-25T13:10:25.382Z,2.75
2023-04-25T13:12:59.736Z,2.80
2023-04-25T13:15:35.972Z,2.65
2023-04-25T13:18:11.975Z,2.70
2023-04-25T13:20:46.783Z,2.95
2023-04-25T13:23:25.073Z,3.10
2023-04-25T13:26:01.053Z,2.78
2023-04-25T13:28:35.434Z,2.83
2023-04-25T13:31:10.184Z,2.50
2023-04-25T13:33:45.408Z,2.72
2023-04-25T13:36:24.422Z,2.58
2023-04-25T13:39:03.808Z,2.65
2023-04-25T13:41:38.599Z,2.50
2023-04-25T13:44:13.112Z,2.88
2023-04-25T13:46:49.239Z,3.00
2023-04-25T13:49:25.582Z,3.17
2023-04-25T13:52:00.971Z,2.97
2023-04-25T13:54:38.088Z,2.85
2023-04-25T13:57:15.140Z,3.25
2023-04-25T13:59:49.517Z,3.28
2023-04-25T14:02:24.304Z,2.90
2023-04-25T14:04:59.727Z,3.00
2023-04-25T14:07:35.662Z,2.95
2023-04-25T14:10:16.596Z,3.60
2023-04-25T14:12:51.204Z,3.40
2023-04-25T14:15:25.653Z,3.40
2023-04-25T14:18:06.443Z,3.40
2023-04-25T14:20:41.927Z,3.50
2023-04-25T14:23:16.569Z,3.17
2023-04-25T14:25:52.973Z,3.42
2023-04-25T14:28:28.480Z,3.22
2023-04-25T14:31:03.279Z,3.60
2023-04-25T14:33:38.062Z,3.30
2023-04-25T14:36:13.721Z,3.25
2023-04-25T14:38:49.508Z,3.58
2023-04-25T14:41:25.780Z,3.05
2023-04-25T14:44:01.431Z,3.25
2023-04-25T14:46:36.144Z,3.10
2023-04-25T14:49:12.063Z,2.95
2023-04-25T14:51:48.752Z,3.15
2023-04-25T14:54:24.370Z,3.50
2023-04-25T14:57:00.751Z,3.35
2023-04-25T14:59:36.454Z,3.30
2023-04-25T15:02:10.959Z,3.50
2023-04-25T15:04:45.831Z,3.53
2023-04-25T15:07:20.968Z,3.45
2023-04-25T15:09:59.411Z,3.65
2023-04-25T15:12:36.324Z,3.70
2023-04-25T15:15:17.505Z,3.20
2023-04-25T15:17:59.797Z,3.58
2023-04-25T15:20:35.628Z,3.83
2023-04-25T15:23:10.972Z,3.90
2023-04-25T15:25:45.955Z,3.17
2023-04-25T15:28:23.896Z,3.40
2023-04-25T15:31:00.153Z,3.50
2023-04-25T15:33:34.957Z,3.35
2023-04-25T15:36:09.992Z,3.25
2023-04-25T15:38:46.060Z,3.40
2023-04-25T15:41:21.629Z,3.35
2023-04-25T15:43:58.381Z,3.50
2023-04-25T15:46:33.844Z,3.45
2023-04-25T15:49:08.330Z,3.25
2023-04-25T15:51:44.102Z,3.38
2023-04-25T15:54:20.169Z,3.88
2023-04-25T15:56:54.768Z,3.58
2023-04-25T15:59:31.573Z,3.70
2023-04-25T16:02:07.474Z,4.03
2023-04-25T16:04:42.048Z,4.28
2023-04-25T16:07:16.774Z,3.63
2023-04-25T16:09:51.754Z,3.47
2023-04-25T16:12:27.739Z,3.67
2023-04-25T16:15:04.933Z,3.67
2023-04-25T16:17:39.764Z,3.65
2023-04-25T16:20:15.038Z,3.35
2023-04-25T16:22:51.079Z,3.30
2023-04-25T16:25:25.989Z,3.70
2023-04-25T16:28:00.586Z,3.45
2023-04-25T16:30:37.047Z,3.17
2023-04-25T16:33:12.617Z,3.70
2023-04-25T16:35:48.413Z,3.67
2023-04-25T16:38:23.554Z,3.67
2023-04-25T16:40:58.730Z,3.78
2023-04-25T16:43:34.411Z,3.70
2023-04-25T16:46:10.848Z,3.88
2023-04-25T16:48:45.736Z,3.88
2023-04-25T16:51:21.420Z,3.78
2023-04-25T16:53:57.035Z,3.85
2023-04-25T16:56:32.665Z,3.85
2023-04-25T16:59:07.356Z,4.15
2023-04-25T17:01:44.525Z,3.47
2023-04-25T17:04:20.881Z,3.47
2023-04-25T17:06:55.414Z,3.63
2023-04-25T17:09:30.124Z,3.90
2023-04-25T17:12:06.446Z,3.53
2023-04-25T17:14:42.231Z,3.50
2023-04-25T17:17:20.340Z,3.42
2023-04-25T17:19:55.225Z,3.63
2023-04-25T17:22:29.789Z,3.72
2023-04-25T17:25:06.220Z,3.65
2023-04-25T17:27:41.779Z,4.15
2023-04-25T17:30:16.630Z,3.83
2023-04-25T17:32:53.593Z,3.40
2023-04-25T17:35:29.582Z,3.60
2023-04-25T17:38:03.925Z,3.70
2023-04-25T17:40:39.035Z,3.30
2023-04-25T17:43:15.344Z,3.65
2023-04-25T17:45:53.069Z,3.60
2023-04-25T17:48:29.495Z,3.92
2023-04-25T17:51:04.360Z,3.70
2023-04-25T17:53:38.646Z,4.05
2023-04-25T17:56:25.946Z,3.38
2023-04-25T17:59:01.309Z,3.20
2023-04-25T18:01:36.271Z,2.90
2023-04-25T18:04:12.598Z,3.60
2023-04-25T18:06:47.970Z,3.47
2023-04-25T18:09:25.168Z,3.47
2023-04-25T18:12:00.036Z,3.92
2023-04-25T18:14:38.371Z,2.88
2023-04-25T18:17:15.919Z,3.90
2023-04-25T18:19:52.735Z,2.70
2023-04-25T18:22:27.484Z,3.45
2023-04-25T18:25:02.581Z,3.35
2023-04-25T18:27:38.914Z,3.63
2023-04-25T18:30:14.621Z,3.25
2023-04-25T18:32:49.256Z,3.25
2023-04-25T18:35:25.850Z,3.65
2023-04-25T18:38:01.372Z,3.33
2023-04-25T18:40:41.479Z,3.60
2023-04-25T18:43:21.778Z,3.50
2023-04-25T18:45:56.854Z,3.47
2023-04-25T18:48:32.417Z,3.75
2023-04-25T18:51:09.248Z,3.55
2023-04-25T18:53:43.759Z,3.33
2023-04-25T18:56:20.563Z,3.00
2023-04-25T18:58:56.022Z,3.38
2023-04-25T19:01:31.186Z,3.60
2023-04-25T19:04:06.757Z,3.38
2023-04-25T19:06:43.314Z,2.97
2023-04-25T19:09:18.636Z,3.38
2023-04-25T19:11:53.042Z,2.88
2023-04-25T19:14:27.916Z,3.30
2023-04-25T19:17:03.137Z,3.25
2023-04-25T19:19:38.790Z,3.42
2023-04-25T19:22:15.360Z,3.42
2023-04-25T19:24:59.090Z,3.50
2023-04-25T19:27:43.936Z,2.95
2023-04-25T19:30:19.495Z,3.63
2023-04-25T19:32:54.594Z,3.38
2023-04-25T19:35:32.433Z,3.53
2023-04-25T19:38:08.724Z,3.40
2023-04-25T19:40:44.542Z,3.22
2023-04-25T19:43:19.264Z,3.03
2023-04-25T19:45:53.893Z,3.40
2023-04-25T19:48:30.516Z,3.58
2023-04-25T19:51:06.389Z,3.70
2023-04-25T19:53:42.631Z,3.35
2023-04-25T19:56:17.298Z,3.65
2023-04-25T19:58:53.735Z,3.50
2023-04-25T20:01:29.664Z,3.40
2023-04-25T20:04:07.645Z,3.30
2023-04-25T20:06:42.710Z,3.78
2023-04-25T20:09:18.946Z,3.58
2023-04-25T20:11:56.787Z,3.45
2023-04-25T20:14:32.949Z,3.33
2023-04-25T20:17:09.170Z,3.60
2023-04-25T20:19:44.359Z,3.50
2023-04-25T20:22:20.306Z,3.67
2023-04-25T20:24:56.651Z,3.63
2023-04-25T20:27:31.378Z,3.92
2023-04-25T20:30:09.466Z,3.60
2023-04-25T20:32:45.549Z,3.58
2023-04-25T20:35:20.889Z,3.95
2023-04-25T20:37:55.415Z,3.70
2023-04-25T20:40:31.679Z,3.78
2023-04-25T20:43:08.527Z,3.78
2023-04-25T20:45:43.215Z,3.50
2023-04-25T20:48:19.413Z,3.90
2023-04-25T20:50:54.476Z,3.45
2023-04-25T20:53:30.341Z,3.88
2023-04-25T20:56:08.054Z,4.03
2023-04-25T20:58:44.127Z,4.05
2023-04-25T21:01:18.565Z,4.18
2023-04-25T21:03:54.634Z,4.22
2023-04-25T21:06:31.906Z,3.78
2023-04-25T21:09:06.588Z,3.55
2023-04-25T21:11:42.888Z,4.32
2023-04-25T21:14:18.252Z,3.92
2023-04-25T21:16:52.570Z,3.75
2023-04-25T21:19:27.241Z,4.28
2023-04-25T21:22:05.348Z,4.32
2023-04-25T21:24:41.237Z,4.30
2023-04-25T21:27:19.011Z,4.18
2023-04-25T21:29:56.644Z,4.07
2023-04-25T21:32:31.444Z,3.85
2023-04-25T21:35:07.059Z,4.00
2023-04-25T21:37:42.106Z,4.70
2023-04-25T21:40:16.915Z,4.93
2023-04-25T21:42:55.468Z,4.30
2023-04-25T21:45:32.629Z,4.15
2023-04-25T21:48:07.105Z,4.32
2023-04-25T21:50:42.089Z,4.53
2023-04-25T21:53:17.105Z,4.97
2023-04-25T21:55:52.734Z,4.55
2023-04-25T21:58:28.933Z,4.85
2023-04-25T22:01:04.066Z,5.00
2023-04-25T22:03:38.626Z,4.93
2023-04-25T22:06:14.654Z,5.80
2023-04-25T22:08:49.814Z,4.85
2023-04-25T22:11:26.099Z,5.38
2023-04-25T22:14:02.844Z,4.70
2023-04-25T22:16:38.664Z,4.82
2023-04-25T22:19:13.315Z,5.10
2023-04-25T22:21:48.113Z,5.00
2023-04-25T22:24:23.971Z,4.30
2023-04-25T22:26:59.679Z,4.78
2023-04-25T22:29:35.833Z,4.50
2023-04-25T22:32:11.368Z,4.47
2023-04-25T22:34:45.847Z,4.47
2023-04-25T22:37:22.282Z,4.80
2023-04-25T22:39:57.095Z,4.22
2023-04-25T22:42:31.825Z,4.72
2023-04-25T22:45:08.080Z,4.82
2023-04-25T22:47:43.938Z,4.72
2023-04-25T22:50:18.293Z,4.43
2023-04-25T22:52:53.426Z,4.47
2023-04-25T22:55:28.481Z,5.25
2023-04-25T22:58:04.165Z,10.07
2023-04-25T23:00:40.419Z,7.28
2023-04-25T23:03:15.413Z,4.78
2023-04-25T23:05:50.030Z,5.10
2023-04-25T23:08:25.705Z,4.63
2023-04-25T23:11:00.628Z,5.28
2023-04-25T23:13:38.372Z,5.05
2023-04-25T23:16:15.090Z,5.10
2023-04-25T23:18:50.867Z,4.55
2023-04-25T23:21:25.617Z,4.68
2023-04-25T23:24:01.298Z,4.95
2023-04-25T23:26:37.479Z,4.82
2023-04-25T23:29:13.415Z,4.97
2023-04-25T23:31:50.860Z,5.30
2023-04-25T23:34:25.396Z,4.20
2023-04-25T23:36:59.699Z,4.85
2023-04-25T23:39:35.340Z,5.38
2023-04-25T23:42:10.459Z,4.45
2023-04-25T23:44:48.102Z,4.22
2023-04-25T23:47:27.017Z,5.47
2023-04-25T23:50:02.911Z,4.28
2023-04-25T23:52:37.778Z,4.45
2023-04-25T23:55:12.725Z,5.22
2023-04-25T23:57:47.782Z,4.63
